Terminal Aerodrome Forecast
Issued by NWS

Home | Current Version | Previous Version | Text Only | Print | Product List | Glossary On
Versions: 1 2 3 4 5 6 7 8 9 10 11 12 13 14 15 16 17 18 19 20 21 22 23
539
FTUS42 TJSJ 231140
TAFJSJ
TAF
TJSJ 231140Z 2312/2412 11010KT P6SM SCT025 SCT060
     FM231300 08015G25KT P6SM SCT030 SCT050
     FM232300 11010KT P6SM SCT030=

USA.gov is the U.S. government's official web portal to all federal, state and local government web resources and services.